createdAt,value
2018-06-20T00:01:57.525Z,17.48
2018-06-20T00:04:25.272Z,17.42
2018-06-20T00:06:54.197Z,17.39
2018-06-20T00:09:21.933Z,17.39
2018-06-20T00:11:50.848Z,17.41
2018-06-20T00:14:19.183Z,17.43
2018-06-20T00:16:47.509Z,17.43
2018-06-20T00:19:15.828Z,17.39
2018-06-20T00:21:44.176Z,17.34
2018-06-20T00:24:12.506Z,17.36
2018-06-20T00:26:40.306Z,17.36
2018-06-20T00:29:09.228Z,17.32
2018-06-20T00:31:37.554Z,17.31
2018-06-20T00:34:05.886Z,17.32
2018-06-20T00:36:34.277Z,17.33
2018-06-20T00:39:02.028Z,17.27
2018-06-20T00:41:30.930Z,17.21
2018-06-20T00:43:59.271Z,17.19
2018-06-20T00:46:27.609Z,17.18
2018-06-20T00:48:55.938Z,17.16
2018-06-20T00:51:23.685Z,17.15
2018-06-20T00:53:52.598Z,17.15
2018-06-20T00:56:20.943Z,17.12
2018-06-20T00:58:49.276Z,17.12
2018-06-20T01:01:17.604Z,17.09
2018-06-20T01:03:45.529Z,17.09
2018-06-20T01:06:14.266Z,17.09
2018-06-20T01:08:42.590Z,17.08
2018-06-20T01:11:10.906Z,17.04
2018-06-20T01:13:39.243Z,16.99
2018-06-20T01:16:07.585Z,17.00
2018-06-20T01:18:35.345Z,16.94
2018-06-20T01:21:03.679Z,16.92
2018-06-20T01:23:32.813Z,16.93
2018-06-20T01:26:00.925Z,16.92
2018-06-20T01:28:29.253Z,16.94
2018-06-20T01:30:57.595Z,16.90
2018-06-20T01:33:25.915Z,16.91
2018-06-20T01:35:54.250Z,16.93
2018-06-20T01:38:22.621Z,16.94
2018-06-20T01:40:50.403Z,16.95
2018-06-20T01:43:19.322Z,16.93
2018-06-20T01:45:47.689Z,16.90
2018-06-20T01:48:15.436Z,16.85
2018-06-20T01:50:44.343Z,16.82
2018-06-20T01:53:12.090Z,16.78
2018-06-20T01:55:40.574Z,16.76
2018-06-20T01:58:09.433Z,16.74
2018-06-20T02:00:37.757Z,16.74
2018-06-20T02:03:06.095Z,16.72
2018-06-20T02:05:34.422Z,16.73
2018-06-20T02:08:02.753Z,16.72
2018-06-20T02:10:30.503Z,16.74
2018-06-20T02:13:02.313Z,16.81
2018-06-20T02:15:31.266Z,16.78
2018-06-20T02:17:59.590Z,16.75
2018-06-20T02:20:27.923Z,16.74
2018-06-20T02:22:56.259Z,16.74
2018-06-20T02:25:24.824Z,16.78
2018-06-20T02:27:52.923Z,16.79
2018-06-20T02:30:21.292Z,16.75
2018-06-20T02:32:49.480Z,16.75
2018-06-20T02:35:18.393Z,16.80
2018-06-20T02:37:46.139Z,16.77
2018-06-20T02:40:15.117Z,16.82
2018-06-20T02:42:43.446Z,16.85
2018-06-20T02:45:11.780Z,16.85
2018-06-20T02:47:40.128Z,16.80
2018-06-20T02:50:09.419Z,16.73
2018-06-20T02:52:37.844Z,16.71
2018-06-20T02:55:05.510Z,16.67
2018-06-20T02:57:34.429Z,16.60
2018-06-20T03:00:02.750Z,16.57
2018-06-20T03:02:31.071Z,16.54
2018-06-20T03:04:59.610Z,16.56
2018-06-20T03:07:27.912Z,16.47
2018-06-20T03:09:56.252Z,16.42
2018-06-20T03:12:24.621Z,16.38
2018-06-20T03:14:52.959Z,16.33
2018-06-20T03:17:20.701Z,16.28
2018-06-20T03:19:49.620Z,16.29
2018-06-20T03:22:17.996Z,16.29
2018-06-20T03:24:45.695Z,16.31
2018-06-20T03:27:14.658Z,16.37
2018-06-20T03:29:42.984Z,16.41
2018-06-20T03:32:11.315Z,16.46
2018-06-20T03:34:39.637Z,16.50
2018-06-20T03:37:07.969Z,16.54
2018-06-20T03:39:36.295Z,16.59
2018-06-20T03:42:04.553Z,16.63
2018-06-20T03:44:32.396Z,16.67
2018-06-20T03:47:01.317Z,16.74
2018-06-20T03:49:29.051Z,16.88
2018-06-20T03:51:57.960Z,17.00
2018-06-20T03:54:26.688Z,17.07
2018-06-20T03:56:55.899Z,17.19
2018-06-20T03:59:23.631Z,17.30
2018-06-20T04:01:52.537Z,17.32
2018-06-20T04:04:20.896Z,17.38
2018-06-20T04:06:49.255Z,17.39
2018-06-20T04:09:17.584Z,17.33
2018-06-20T04:11:45.917Z,17.35
2018-06-20T04:14:14.241Z,17.30
2018-06-20T04:16:42.000Z,17.31
2018-06-20T04:19:10.898Z,17.36
2018-06-20T04:21:39.248Z,17.36
2018-06-20T04:24:07.615Z,17.36
2018-06-20T04:26:35.976Z,17.39
2018-06-20T04:29:04.367Z,17.47
2018-06-20T04:31:32.632Z,17.56
2018-06-20T04:34:01.812Z,17.69
2018-06-20T04:36:28.861Z,17.77
2018-06-20T04:38:57.641Z,17.87
2018-06-20T04:41:25.971Z,17.94
2018-06-20T04:43:53.776Z,18.01
2018-06-20T04:46:22.132Z,18.13
2018-06-20T04:48:50.456Z,18.21
2018-06-20T04:51:19.370Z,18.25
2018-06-20T04:53:47.722Z,18.17
2018-06-20T04:56:15.450Z,18.14
2018-06-20T04:58:44.578Z,18.04
2018-06-20T05:01:12.350Z,18.05
2018-06-20T05:03:41.259Z,18.07
2018-06-20T05:06:09.037Z,18.07
2018-06-20T05:08:37.937Z,18.06
2018-06-20T05:11:05.691Z,18.11
2018-06-20T05:13:34.625Z,18.21
2018-06-20T05:16:02.951Z,18.20
2018-06-20T05:18:31.313Z,18.31
2018-06-20T05:20:59.618Z,18.40
2018-06-20T05:23:28.002Z,18.51
2018-06-20T05:25:55.707Z,18.50
2018-06-20T05:28:24.635Z,18.43
2018-06-20T05:30:52.964Z,18.38
2018-06-20T05:33:20.725Z,18.44
2018-06-20T05:35:49.646Z,18.51
2018-06-20T05:38:17.977Z,18.60
2018-06-20T05:40:46.319Z,18.68
2018-06-20T05:43:14.647Z,18.64
2018-06-20T05:45:42.512Z,18.62
2018-06-20T05:48:11.013Z,18.60
2018-06-20T05:50:39.979Z,18.64
2018-06-20T05:53:08.413Z,18.74
2018-06-20T05:55:36.717Z,18.84
2018-06-20T05:58:04.550Z,18.89
2018-06-20T06:00:36.716Z,18.91
2018-06-20T06:03:04.219Z,18.96
2018-06-20T06:05:32.572Z,19.03
2018-06-20T06:08:00.900Z,19.08
2018-06-20T06:10:28.651Z,19.14
2018-06-20T06:12:57.559Z,19.21
2018-06-20T06:15:25.893Z,19.14
2018-06-20T06:17:53.642Z,19.02
2018-06-20T06:20:22.581Z,19.04
2018-06-20T06:22:50.936Z,19.06
2018-06-20T06:25:19.336Z,19.18
2018-06-20T06:27:47.662Z,19.24
2018-06-20T06:30:15.983Z,19.26
2018-06-20T06:32:44.325Z,19.28
2018-06-20T06:35:12.641Z,19.31
2018-06-20T06:37:41.455Z,19.33
2018-06-20T06:40:09.745Z,19.47
2018-06-20T06:42:38.660Z,19.58
2018-06-20T06:45:07.014Z,19.61
2018-06-20T06:47:34.861Z,19.69
2018-06-20T06:50:03.844Z,19.56
2018-06-20T06:52:32.187Z,19.44
2018-06-20T06:55:00.532Z,19.44
2018-06-20T06:57:28.863Z,19.53
2018-06-20T06:59:57.179Z,19.57
2018-06-20T07:02:25.527Z,19.58
2018-06-20T07:04:53.860Z,19.46
2018-06-20T07:07:21.634Z,19.54
2018-06-20T07:09:50.561Z,19.65
2018-06-20T07:12:18.887Z,19.55
2018-06-20T07:14:46.635Z,19.50
2018-06-20T07:17:14.976Z,19.59
2018-06-20T07:19:43.931Z,19.65
2018-06-20T07:22:12.260Z,19.78
2018-06-20T07:24:40.598Z,19.92
2018-06-20T07:27:08.914Z,19.99
2018-06-20T07:29:37.481Z,20.02
2018-06-20T07:32:05.015Z,20.01
2018-06-20T07:34:34.009Z,20.00
2018-06-20T07:37:02.269Z,19.95
2018-06-20T07:39:30.603Z,19.98
2018-06-20T07:41:58.927Z,20.04
2018-06-20T07:44:27.272Z,20.12
2018-06-20T07:46:56.397Z,20.19
2018-06-20T07:49:24.148Z,20.23
2018-06-20T07:51:53.054Z,20.28
2018-06-20T07:54:21.386Z,20.31
2018-06-20T07:56:49.730Z,20.33
2018-06-20T07:59:18.049Z,20.31
2018-06-20T08:01:54.858Z,20.28
2018-06-20T08:04:25.098Z,20.36
2018-06-20T08:06:52.828Z,20.34
2018-06-20T08:09:27.353Z,20.40
2018-06-20T08:12:01.196Z,20.38
2018-06-20T08:14:35.244Z,20.39
2018-06-20T08:17:03.619Z,20.43
2018-06-20T08:19:32.864Z,20.48
2018-06-20T08:22:01.192Z,20.55
2018-06-20T08:24:28.938Z,20.55
2018-06-20T08:26:57.845Z,20.60
2018-06-20T08:29:25.591Z,20.73
2018-06-20T08:31:54.512Z,20.80
2018-06-20T08:34:23.100Z,20.85
2018-06-20T08:36:51.248Z,20.83
2018-06-20T08:39:21.079Z,20.89
2018-06-20T08:41:49.593Z,21.00
2018-06-20T08:44:17.933Z,21.07
2018-06-20T08:46:46.250Z,21.16
2018-06-20T08:49:14.588Z,21.21
2018-06-20T08:51:42.915Z,21.26
2018-06-20T08:54:11.239Z,21.33
2018-06-20T08:56:39.791Z,21.36
2018-06-20T08:59:08.842Z,21.38
2018-06-20T09:01:37.186Z,21.40
2018-06-20T09:04:11.494Z,21.42
2018-06-20T09:06:40.067Z,21.45
2018-06-20T09:09:13.791Z,21.51
2018-06-20T09:11:43.019Z,21.57
2018-06-20T09:14:11.325Z,21.60
2018-06-20T09:16:45.346Z,21.60
2018-06-20T09:19:15.893Z,21.63
2018-06-20T09:21:44.908Z,21.67
2018-06-20T09:24:13.234Z,21.75
2018-06-20T09:26:41.733Z,21.76
2018-06-20T09:29:09.415Z,21.76
2018-06-20T09:31:37.748Z,21.81
2018-06-20T09:34:06.646Z,21.88
2018-06-20T09:36:34.968Z,21.99
2018-06-20T09:39:03.324Z,22.05
2018-06-20T09:41:31.672Z,22.11
2018-06-20T09:43:59.989Z,22.16
2018-06-20T09:46:40.294Z,22.28
2018-06-20T09:49:01.188Z,22.36
2018-06-20T09:51:30.619Z,22.40
2018-06-20T09:53:58.354Z,22.38
2018-06-20T09:56:27.257Z,22.43
2018-06-20T09:58:55.004Z,22.49
2018-06-20T10:01:29.712Z,22.48
2018-06-20T10:04:03.517Z,22.49
2018-06-20T10:06:37.408Z,22.60
2018-06-20T10:09:05.738Z,22.67
2018-06-20T10:11:34.078Z,22.76
2018-06-20T10:14:02.443Z,22.84
2018-06-20T10:16:31.682Z,22.84
2018-06-20T10:19:01.420Z,22.87
2018-06-20T10:21:29.730Z,22.85
2018-06-20T10:23:58.001Z,22.90
2018-06-20T10:26:28.600Z,22.95
2018-06-20T10:28:56.919Z,22.96
2018-06-20T10:31:25.481Z,23.00
2018-06-20T10:33:53.581Z,23.02
2018-06-20T10:36:21.908Z,23.08
2018-06-20T10:38:51.590Z,23.17
2018-06-20T10:41:18.028Z,23.21
2018-06-20T10:43:46.919Z,23.25
2018-06-20T10:46:14.746Z,23.31
2018-06-20T10:48:45.523Z,23.38
2018-06-20T10:51:14.722Z,23.36
2018-06-20T10:53:43.925Z,23.41
2018-06-20T10:56:12.032Z,23.46
2018-06-20T10:58:42.091Z,23.49
2018-06-20T11:01:16.501Z,23.57
2018-06-20T11:03:44.825Z,23.62
2018-06-20T11:06:15.070Z,23.59
2018-06-20T11:08:49.958Z,23.62
2018-06-20T11:11:23.266Z,23.71
2018-06-20T11:13:51.749Z,23.79
2018-06-20T11:16:19.481Z,23.88
2018-06-20T11:18:47.816Z,24.00
2018-06-20T11:21:16.726Z,24.19
2018-06-20T11:23:45.047Z,24.30
2018-06-20T11:26:13.377Z,24.39
2018-06-20T11:28:41.818Z,24.45
2018-06-20T11:31:10.373Z,24.50
2018-06-20T11:33:38.681Z,24.57
2018-06-20T11:36:07.557Z,24.75
2018-06-20T11:38:35.894Z,24.86
2018-06-20T11:41:05.131Z,24.98
2018-06-20T11:43:33.453Z,25.10
2018-06-20T11:46:01.790Z,25.21
2018-06-20T11:48:30.121Z,25.27
2018-06-20T11:50:57.862Z,25.40
2018-06-20T11:53:26.775Z,25.47
2018-06-20T11:55:55.214Z,25.38
2018-06-20T11:58:23.518Z,25.37
2018-06-20T12:00:51.270Z,25.43
2018-06-20T12:03:20.517Z,25.54
2018-06-20T12:05:51.832Z,25.66
2018-06-20T12:08:26.351Z,25.78
2018-06-20T12:10:56.627Z,25.94
2018-06-20T12:13:25.932Z,26.07
2018-06-20T12:16:00.000Z,26.13
2018-06-20T12:18:33.939Z,26.26
2018-06-20T12:21:07.229Z,26.38
2018-06-20T12:23:41.703Z,26.51
2018-06-20T12:26:15.735Z,26.75
2018-06-20T12:28:48.990Z,26.88
2018-06-20T12:31:25.190Z,26.83
2018-06-20T12:33:59.330Z,26.84
2018-06-20T12:36:34.725Z,26.95
2018-06-20T12:39:04.937Z,27.13
2018-06-20T12:41:30.910Z,27.30
2018-06-20T12:44:06.636Z,27.35
2018-06-20T12:46:36.434Z,27.51
2018-06-20T12:49:05.188Z,27.60
2018-06-20T12:51:33.683Z,27.59
2018-06-20T12:54:02.023Z,27.71
2018-06-20T12:56:30.407Z,27.85
2018-06-20T12:58:58.157Z,27.96
2018-06-20T13:01:27.063Z,28.01
2018-06-20T13:03:56.462Z,28.16
2018-06-20T13:06:24.770Z,28.33
2018-06-20T13:11:32.273Z,28.70
2018-06-20T13:14:00.600Z,28.79
2018-06-20T13:16:28.935Z,28.86
2018-06-20T13:18:57.269Z,28.96
2018-06-20T13:21:25.061Z,29.08
2018-06-20T13:45:17.377Z,30.20
2018-06-20T13:47:50.553Z,30.21
2018-06-20T13:50:18.915Z,30.37
2018-06-20T13:52:47.270Z,30.27
2018-06-20T13:55:15.604Z,30.36
2018-06-20T13:57:44.014Z,30.28
2018-06-20T14:00:15.556Z,30.25
2018-06-20T14:02:43.987Z,30.35
2018-06-20T14:05:12.352Z,30.49
2018-06-20T14:07:41.700Z,30.37
2018-06-20T14:10:11.065Z,30.34
2018-06-20T14:12:39.716Z,30.48
2018-06-20T14:15:09.778Z,30.75
2018-06-20T14:17:38.176Z,30.48
2018-06-20T14:20:07.543Z,30.08
2018-06-20T14:22:42.224Z,30.25
2018-06-20T14:25:12.299Z,30.49
2018-06-20T14:27:40.304Z,30.73
2018-06-20T14:30:14.679Z,31.04
2018-06-20T14:32:57.101Z,31.35
2018-06-20T14:44:18.195Z,31.90
2018-06-20T14:46:54.414Z,31.31
2018-06-20T14:49:23.648Z,30.70
2018-06-20T14:51:52.192Z,29.94
2018-06-20T14:54:23.366Z,29.33
2018-06-20T14:56:56.466Z,29.05
2018-06-20T14:59:26.375Z,29.07
2018-06-20T15:01:57.215Z,28.91
2018-06-20T15:04:28.910Z,28.77
2018-06-20T15:06:57.283Z,28.54
2018-06-20T15:12:34.078Z,28.15
2018-06-20T15:15:09.859Z,28.28
2018-06-20T15:18:16.846Z,28.39
2018-06-20T15:20:36.666Z,29.12
2018-06-20T15:23:08.843Z,29.43
2018-06-20T15:25:34.535Z,29.40
2018-06-20T15:28:07.004Z,29.25
2018-06-20T15:30:36.142Z,28.90
2018-06-20T15:33:04.652Z,28.53
2018-06-20T15:35:41.863Z,28.26
2018-06-20T15:41:12.702Z,27.76
2018-06-20T15:43:42.688Z,27.66
2018-06-20T15:46:10.120Z,27.63
2018-06-20T15:48:38.278Z,27.55
2018-06-20T15:51:06.779Z,27.51
2018-06-20T15:53:36.226Z,27.46
2018-06-20T15:56:05.118Z,27.36
2018-06-20T15:58:33.598Z,27.49
2018-06-20T16:01:02.030Z,27.33
2018-06-20T16:03:32.660Z,27.32
2018-06-20T16:06:01.042Z,27.20
2018-06-20T16:08:29.361Z,26.90
2018-06-20T16:10:57.695Z,26.62
2018-06-20T16:13:26.013Z,26.47
2018-06-20T16:15:54.711Z,26.41
2018-06-20T16:18:22.988Z,26.33
2018-06-20T16:20:57.334Z,26.27
2018-06-20T16:23:31.731Z,26.14
2018-06-20T16:26:00.083Z,26.11
2018-06-20T16:28:35.103Z,26.33
2018-06-20T16:31:02.170Z,26.55
2018-06-20T16:33:31.100Z,26.84
2018-06-20T16:35:59.428Z,27.15
2018-06-20T16:38:27.175Z,27.28
2018-06-20T16:40:56.927Z,27.72
2018-06-20T16:43:25.283Z,28.23
2018-06-20T16:45:53.835Z,28.65
2018-06-20T16:48:21.934Z,28.69
2018-06-20T16:50:50.261Z,28.79
2018-06-20T16:53:18.363Z,28.96
2018-06-20T16:55:46.915Z,28.72
2018-06-20T16:58:15.241Z,28.44
2018-06-20T17:00:46.064Z,28.22
2018-06-20T17:08:32.974Z,27.41
2018-06-20T17:11:00.497Z,27.08
2018-06-20T17:13:31.579Z,26.90
2018-06-20T17:16:00.614Z,26.68
2018-06-20T17:18:30.925Z,26.50
2018-06-20T17:21:00.154Z,26.37
2018-06-20T17:23:28.627Z,26.25
2018-06-20T17:25:56.369Z,26.12
2018-06-20T17:28:25.280Z,26.00
2018-06-20T17:30:53.097Z,25.81
2018-06-20T17:33:21.970Z,25.62
2018-06-20T17:35:50.363Z,25.42
2018-06-20T17:38:18.089Z,25.25
2018-06-20T17:40:46.979Z,25.21
2018-06-20T17:43:15.379Z,25.07
2018-06-20T17:45:43.093Z,24.92
2018-06-20T17:48:12.014Z,24.80
2018-06-20T17:50:40.367Z,24.76
2018-06-20T17:53:08.692Z,24.75
2018-06-20T17:55:38.268Z,24.72
2018-06-20T17:58:06.134Z,24.57
2018-06-20T18:00:35.050Z,24.47
2018-06-20T18:03:03.596Z,24.48
2018-06-20T18:05:33.680Z,24.49
2018-06-20T18:08:03.927Z,24.51
2018-06-20T18:10:48.926Z,24.52
2018-06-20T18:13:17.247Z,24.58
2018-06-20T18:15:46.991Z,24.62
2018-06-20T18:18:15.898Z,24.60
2018-06-20T18:20:44.981Z,24.50
2018-06-20T18:23:13.582Z,24.43
2018-06-20T18:25:41.685Z,24.42
2018-06-20T18:28:11.674Z,24.46
2018-06-20T18:30:39.420Z,24.52
2018-06-20T18:33:07.771Z,24.59
2018-06-20T18:35:36.663Z,24.58
2018-06-20T18:38:05.037Z,24.56
2018-06-20T18:40:33.594Z,24.58
2018-06-20T18:43:01.742Z,24.62
2018-06-20T18:45:31.520Z,24.47
2018-06-20T18:48:00.513Z,24.37
2018-06-20T18:50:28.607Z,24.30
2018-06-20T18:52:56.942Z,24.18
2018-06-20T18:55:25.298Z,24.07
2018-06-20T18:57:53.608Z,23.99
2018-06-20T19:03:41.366Z,23.83
2018-06-20T19:06:46.817Z,23.72
2018-06-20T19:09:05.758Z,23.54
2018-06-20T19:11:33.815Z,23.52
2018-06-20T19:14:02.204Z,23.56
2018-06-20T19:16:30.529Z,23.62
2018-06-20T19:18:58.878Z,23.66
2018-06-20T19:21:27.272Z,23.69
2018-06-20T19:23:55.566Z,23.63
2018-06-20T19:26:23.900Z,23.56
2018-06-20T19:28:52.237Z,23.54
2018-06-20T19:31:19.998Z,23.54
2018-06-20T19:33:48.916Z,23.51
2018-06-20T19:36:17.282Z,23.46
2018-06-20T19:38:45.933Z,23.34
2018-06-20T19:41:14.035Z,23.28
2018-06-20T19:43:42.398Z,23.18
2018-06-20T19:46:11.284Z,23.15
2018-06-20T19:48:39.649Z,23.16
2018-06-20T19:51:07.461Z,23.16
2018-06-20T19:53:36.380Z,23.18
2018-06-20T19:56:04.724Z,23.17
2018-06-20T19:58:33.058Z,23.15
2018-06-20T20:01:01.388Z,23.04
2018-06-20T20:03:29.169Z,22.90
2018-06-20T20:05:58.069Z,22.79
2018-06-20T20:08:26.490Z,22.64
2018-06-20T20:10:54.230Z,22.54
2018-06-20T20:13:24.161Z,22.37
2018-06-20T20:15:51.817Z,22.19
2018-06-20T20:18:20.155Z,22.08
2018-06-20T20:20:48.637Z,22.06
2018-06-20T20:23:16.973Z,22.06
2018-06-20T20:25:44.738Z,22.08
2018-06-20T20:28:13.689Z,22.01
2018-06-20T20:30:42.020Z,21.90
2018-06-20T20:33:13.423Z,21.87
2018-06-20T20:35:46.826Z,21.85
2018-06-20T20:38:15.289Z,21.77
2018-06-20T20:40:43.602Z,21.78
2018-06-20T20:43:13.335Z,21.85
2018-06-20T20:45:40.605Z,21.92
2018-06-20T20:48:09.715Z,21.96
2018-06-20T20:50:37.169Z,21.96
2018-06-20T20:53:05.517Z,21.96
2018-06-20T20:55:33.947Z,21.96
2018-06-20T20:58:01.653Z,21.93
2018-06-20T21:00:30.656Z,21.79
2018-06-20T21:02:58.995Z,21.59
2018-06-20T21:05:27.399Z,21.40
2018-06-20T21:07:55.769Z,21.25
2018-06-20T21:10:24.602Z,21.13
2018-06-20T21:12:53.005Z,21.02
2018-06-20T21:15:20.697Z,21.00
2018-06-20T21:17:49.615Z,20.88
2018-06-20T21:20:19.333Z,20.78
2018-06-20T21:22:47.746Z,20.73
2018-06-20T21:25:15.508Z,20.64
2018-06-20T21:27:45.827Z,20.66
2018-06-20T21:30:12.927Z,20.65
2018-06-20T21:32:41.739Z,20.53
2018-06-20T21:35:12.173Z,20.47
2018-06-20T21:37:38.127Z,20.50
2018-06-20T21:40:05.881Z,20.57
2018-06-20T21:42:34.249Z,20.65
2018-06-20T21:45:03.174Z,20.73
2018-06-20T21:47:30.931Z,20.81
2018-06-20T21:49:59.858Z,20.85
2018-06-20T21:52:28.192Z,20.83
2018-06-20T21:54:55.951Z,20.85
2018-06-20T21:57:24.870Z,20.85
2018-06-20T21:59:52.622Z,20.85
2018-06-20T22:02:20.958Z,20.72
2018-06-20T22:04:49.915Z,20.61
2018-06-20T22:07:18.241Z,20.52
2018-06-20T22:09:45.996Z,20.40
2018-06-20T22:12:14.370Z,20.27
2018-06-20T22:14:43.280Z,20.20
2018-06-20T22:17:11.066Z,20.18
2018-06-20T22:19:39.980Z,20.14
2018-06-20T22:22:08.305Z,20.13
2018-06-20T22:24:36.640Z,20.26
2018-06-20T22:27:04.971Z,20.38
2018-06-20T22:29:33.317Z,20.46
2018-06-20T22:32:01.078Z,20.52
2018-06-20T22:34:30.001Z,20.58
2018-06-20T22:36:58.351Z,20.61
2018-06-20T22:39:26.122Z,20.66
2018-06-20T22:41:55.028Z,20.71
2018-06-20T22:44:23.377Z,20.76
2018-06-20T22:46:51.115Z,20.77
2018-06-20T22:49:20.027Z,20.76
2018-06-20T22:51:48.353Z,20.74
2018-06-20T22:54:16.122Z,20.71
2018-06-20T22:56:45.021Z,20.65
2018-06-20T22:59:12.765Z,20.55
2018-06-20T23:01:41.700Z,20.48
2018-06-20T23:04:10.021Z,20.41
2018-06-20T23:06:37.765Z,20.39
2018-06-20T23:09:06.696Z,20.33
2018-06-20T23:11:34.437Z,20.26
2018-06-20T23:14:03.379Z,20.21
2018-06-20T23:16:31.714Z,20.20
2018-06-20T23:19:00.060Z,20.25
2018-06-20T23:21:28.615Z,20.21
2018-06-20T23:23:56.716Z,20.17
2018-06-20T23:26:25.184Z,20.17
2018-06-20T23:28:53.516Z,20.21
2018-06-20T23:31:22.072Z,20.28
2018-06-20T23:33:49.578Z,20.31
2018-06-20T23:36:18.489Z,20.35
2018-06-20T23:38:46.821Z,20.37
2018-06-20T23:41:14.570Z,20.39
2018-06-20T23:43:43.512Z,20.37
2018-06-20T23:46:11.893Z,20.39
2018-06-20T23:48:39.645Z,20.41
2018-06-20T23:51:08.548Z,20.43
2018-06-20T23:53:36.875Z,20.40
2018-06-20T23:56:04.618Z,20.35
2018-06-20T23:58:33.529Z,20.24
